sensor_id;sensor_type;location;lat;lon;timestamp;pressure;altitude;pressure_sealevel;temperature;humidity
35806;BME280;21925;44.608;11.580;2023-02-16T00:00:19;102949.44;;;7.86;65.51
35806;BME280;21925;44.608;11.580;2023-02-16T00:02:47;102896.78;;;7.50;65.20
35806;BME280;21925;44.608;11.580;2023-02-16T00:07:54;102828.59;;;7.15;65.11
35806;BME280;21925;44.608;11.580;2023-02-16T00:10:21;102911.47;;;7.69;65.19
35806;BME280;21925;44.608;11.580;2023-02-16T00:12:48;102902.22;;;7.60;64.98
35806;BME280;21925;44.608;11.580;2023-02-16T00:15:34;102927.34;;;7.57;71.44
35806;BME280;21925;44.608;11.580;2023-02-16T00:18:01;102886.97;;;7.34;68.76
35806;BME280;21925;44.608;11.580;2023-02-16T00:20:29;102927.63;;;7.46;68.72
35806;BME280;21925;44.608;11.580;2023-02-16T00:22:55;102877.69;;;7.15;73.47
35806;BME280;21925;44.608;11.580;2023-02-16T00:25:21;102933.88;;;7.51;69.96
35806;BME280;21925;44.608;11.580;2023-02-16T00:27:47;102862.41;;;7.19;67.73
35806;BME280;21925;44.608;11.580;2023-02-16T00:30:16;102924.31;;;7.49;72.40
35806;BME280;21925;44.608;11.580;2023-02-16T00:32:44;102878.50;;;7.36;67.55
35806;BME280;21925;44.608;11.580;2023-02-16T00:35:21;102847.69;;;7.01;66.69
35806;BME280;21925;44.608;11.580;2023-02-16T00:37:48;102790.13;;;6.67;66.64
35806;BME280;21925;44.608;11.580;2023-02-16T00:40:16;102909.06;;;7.38;66.19
35806;BME280;21925;44.608;11.580;2023-02-16T00:42:45;102918.63;;;7.50;66.15
35806;BME280;21925;44.608;11.580;2023-02-16T00:45:22;102839.50;;;6.86;68.10
35806;BME280;21925;44.608;11.580;2023-02-16T00:47:52;102835.66;;;6.87;66.63
35806;BME280;21925;44.608;11.580;2023-02-16T00:50:28;102930.91;;;7.28;66.51
35806;BME280;21925;44.608;11.580;2023-02-16T00:52:56;102937.44;;;7.22;66.64
35806;BME280;21925;44.608;11.580;2023-02-16T00:55:41;102933.34;;;7.14;66.86
35806;BME280;21925;44.608;11.580;2023-02-16T00:58:19;102936.63;;;7.16;66.45
35806;BME280;21925;44.608;11.580;2023-02-16T01:00:50;102888.03;;;6.89;68.00
35806;BME280;21925;44.608;11.580;2023-02-16T01:03:24;102865.38;;;6.68;69.25
35806;BME280;21925;44.608;11.580;2023-02-16T01:05:52;102881.75;;;6.78;66.95
35806;BME280;21925;44.608;11.580;2023-02-16T01:08:42;102904.91;;;6.81;66.57
35806;BME280;21925;44.608;11.580;2023-02-16T01:11:30;102918.59;;;6.91;66.58
35806;BME280;21925;44.608;11.580;2023-02-16T01:13:58;102922.91;;;6.87;66.53
35806;BME280;21925;44.608;11.580;2023-02-16T01:16:37;102871.63;;;6.59;66.29
35806;BME280;21925;44.608;11.580;2023-02-16T01:19:09;102926.19;;;6.89;66.30
35806;BME280;21925;44.608;11.580;2023-02-16T01:21:36;102924.84;;;6.91;66.26
35806;BME280;21925;44.608;11.580;2023-02-16T01:24:02;102894.00;;;6.66;66.65
35806;BME280;21925;44.608;11.580;2023-02-16T01:26:37;102929.50;;;6.91;71.73
35806;BME280;21925;44.608;11.580;2023-02-16T01:29:04;102926.75;;;6.91;70.31
35806;BME280;21925;44.608;11.580;2023-02-16T01:31:30;102887.97;;;6.54;67.83
35806;BME280;21925;44.608;11.580;2023-02-16T01:33:56;102882.53;;;6.59;66.96
35806;BME280;21925;44.608;11.580;2023-02-16T01:36:30;102881.41;;;6.50;66.66
35806;BME280;21925;44.608;11.580;2023-02-16T01:39:02;102831.19;;;6.16;66.78
35806;BME280;21925;44.608;11.580;2023-02-16T01:44:22;102903.81;;;6.62;66.87
35806;BME280;21925;44.608;11.580;2023-02-16T01:49:37;102902.69;;;6.63;66.82
35806;BME280;21925;44.608;11.580;2023-02-16T01:52:11;102900.53;;;6.60;66.74
35806;BME280;21925;44.608;11.580;2023-02-16T01:54:46;102898.31;;;6.52;67.00
35806;BME280;21925;44.608;11.580;2023-02-16T01:57:40;102907.06;;;6.54;66.88
35806;BME280;21925;44.608;11.580;2023-02-16T02:00:18;102898.59;;;6.55;66.71
35806;BME280;21925;44.608;11.580;2023-02-16T02:02:57;102889.06;;;6.58;66.67
35806;BME280;21925;44.608;11.580;2023-02-16T02:05:43;102866.13;;;6.39;66.29
35806;BME280;21925;44.608;11.580;2023-02-16T02:08:26;102822.66;;;5.93;66.52
35806;BME280;21925;44.608;11.580;2023-02-16T02:13:41;102890.13;;;6.42;66.82
35806;BME280;21925;44.608;11.580;2023-02-16T02:20:20;102877.03;;;6.44;66.59
35806;BME280;21925;44.608;11.580;2023-02-16T02:28:44;102869.13;;;6.37;66.55
35806;BME280;21925;44.608;11.580;2023-02-16T02:31:41;102873.47;;;6.38;66.50
35806;BME280;21925;44.608;11.580;2023-02-16T02:45:33;102865.78;;;6.16;66.83
35806;BME280;21925;44.608;11.580;2023-02-16T02:48:01;102835.22;;;6.04;66.98
35806;BME280;21925;44.608;11.580;2023-02-16T02:50:49;102867.66;;;6.15;67.08
35806;BME280;21925;44.608;11.580;2023-02-16T02:53:46;102851.00;;;6.02;66.89
35806;BME280;21925;44.608;11.580;2023-02-16T02:56:15;102868.78;;;6.19;67.06
35806;BME280;21925;44.608;11.580;2023-02-16T02:59:04;102875.03;;;6.20;67.68
35806;BME280;21925;44.608;11.580;2023-02-16T03:01:55;102874.19;;;6.14;67.63
35806;BME280;21925;44.608;11.580;2023-02-16T03:04:24;102870.09;;;6.12;67.21
35806;BME280;21925;44.608;11.580;2023-02-16T03:06:53;102865.44;;;6.07;67.53
35806;BME280;21925;44.608;11.580;2023-02-16T03:09:21;102856.16;;;5.98;67.07
35806;BME280;21925;44.608;11.580;2023-02-16T03:11:49;102865.38;;;5.92;67.06
35806;BME280;21925;44.608;11.580;2023-02-16T03:14:50;102854.91;;;5.74;67.45
35806;BME280;21925;44.608;11.580;2023-02-16T03:17:21;102866.06;;;5.73;67.96
35806;BME280;21925;44.608;11.580;2023-02-16T03:20:10;102858.63;;;5.58;68.24
35806;BME280;21925;44.608;11.580;2023-02-16T03:22:55;102861.34;;;5.53;68.55
35806;BME280;21925;44.608;11.580;2023-02-16T03:25:41;102867.66;;;5.64;68.19
35806;BME280;21925;44.608;11.580;2023-02-16T03:28:27;102874.16;;;5.58;68.09
35806;BME280;21925;44.608;11.580;2023-02-16T03:31:16;102865.81;;;5.33;69.80
35806;BME280;21925;44.608;11.580;2023-02-16T03:33:43;102880.47;;;5.27;76.43
35806;BME280;21925;44.608;11.580;2023-02-16T03:36:10;102885.16;;;5.37;72.31
35806;BME280;21925;44.608;11.580;2023-02-16T03:38:36;102874.53;;;5.35;72.81
35806;BME280;21925;44.608;11.580;2023-02-16T03:41:03;102886.31;;;5.46;75.82
35806;BME280;21925;44.608;11.580;2023-02-16T03:43:29;102891.72;;;5.41;78.04
35806;BME280;21925;44.608;11.580;2023-02-16T03:45:55;102885.75;;;5.44;72.54
35806;BME280;21925;44.608;11.580;2023-02-16T03:48:21;102864.47;;;5.36;70.71
35806;BME280;21925;44.608;11.580;2023-02-16T03:50:46;102877.34;;;5.45;69.79
35806;BME280;21925;44.608;11.580;2023-02-16T03:53:12;102840.47;;;5.28;68.97
35806;BME280;21925;44.608;11.580;2023-02-16T03:55:38;102886.09;;;5.52;68.40
35806;BME280;21925;44.608;11.580;2023-02-16T03:58:06;102885.72;;;5.39;69.23
35806;BME280;21925;44.608;11.580;2023-02-16T04:00:32;102853.22;;;5.22;72.58
35806;BME280;21925;44.608;11.580;2023-02-16T04:02:58;102884.88;;;5.38;77.95
35806;BME280;21925;44.608;11.580;2023-02-16T04:05:24;102894.13;;;5.37;79.43
35806;BME280;21925;44.608;11.580;2023-02-16T04:07:50;102868.28;;;5.35;77.30
35806;BME280;21925;44.608;11.580;2023-02-16T04:10:16;102889.06;;;5.50;78.30
35806;BME280;21925;44.608;11.580;2023-02-16T04:12:41;102864.16;;;4.96;80.63
35806;BME280;21925;44.608;11.580;2023-02-16T04:15:13;102874.09;;;4.33;87.14
35806;BME280;21925;44.608;11.580;2023-02-16T04:17:39;102892.09;;;4.60;91.24
35806;BME280;21925;44.608;11.580;2023-02-16T04:20:06;102880.19;;;4.66;90.35
35806;BME280;21925;44.608;11.580;2023-02-16T04:22:32;102872.88;;;4.45;88.16
35806;BME280;21925;44.608;11.580;2023-02-16T04:24:58;102888.53;;;4.60;86.74
35806;BME280;21925;44.608;11.580;2023-02-16T04:27:24;102876.16;;;4.47;85.11
35806;BME280;21925;44.608;11.580;2023-02-16T04:29:49;102878.72;;;4.59;82.93
35806;BME280;21925;44.608;11.580;2023-02-16T04:32:15;102892.47;;;4.73;79.31
35806;BME280;21925;44.608;11.580;2023-02-16T04:34:41;102881.53;;;4.64;79.46
35806;BME280;21925;44.608;11.580;2023-02-16T04:37:06;102892.09;;;4.60;83.75
35806;BME280;21925;44.608;11.580;2023-02-16T04:39:32;102870.00;;;4.57;83.57
35806;BME280;21925;44.608;11.580;2023-02-16T04:41:58;102898.22;;;4.77;85.46
35806;BME280;21925;44.608;11.580;2023-02-16T04:44:23;102874.84;;;4.50;91.63
35806;BME280;21925;44.608;11.580;2023-02-16T04:46:49;102864.13;;;4.38;85.33
35806;BME280;21925;44.608;11.580;2023-02-16T04:49:14;102902.53;;;4.47;89.03
35806;BME280;21925;44.608;11.580;2023-02-16T04:51:40;102853.47;;;4.32;84.63
35806;BME280;21925;44.608;11.580;2023-02-16T04:54:06;102859.72;;;4.32;83.80
35806;BME280;21925;44.608;11.580;2023-02-16T04:56:32;102899.41;;;4.38;85.85
35806;BME280;21925;44.608;11.580;2023-02-16T04:58:57;102886.53;;;4.50;86.24
35806;BME280;21925;44.608;11.580;2023-02-16T05:01:25;102895.09;;;4.64;80.07
35806;BME280;21925;44.608;11.580;2023-02-16T05:03:50;102878.28;;;4.19;85.74
35806;BME280;21925;44.608;11.580;2023-02-16T05:06:16;102879.88;;;3.93;85.65
35806;BME280;21925;44.608;11.580;2023-02-16T05:08:42;102891.41;;;4.05;85.10
35806;BME280;21925;44.608;11.580;2023-02-16T05:11:08;102918.56;;;3.68;84.95
35806;BME280;21925;44.608;11.580;2023-02-16T05:13:52;102898.56;;;3.36;91.49
35806;BME280;21925;44.608;11.580;2023-02-16T05:16:36;102885.94;;;4.00;88.68
35806;BME280;21925;44.608;11.580;2023-02-16T05:19:03;102900.84;;;4.19;85.02
35806;BME280;21925;44.608;11.580;2023-02-16T05:21:28;102913.72;;;3.70;89.69
35806;BME280;21925;44.608;11.580;2023-02-16T05:23:58;102915.22;;;3.98;89.49
35806;BME280;21925;44.608;11.580;2023-02-16T05:26:24;102902.50;;;3.83;91.32
35806;BME280;21925;44.608;11.580;2023-02-16T05:28:49;102919.03;;;3.81;91.70
35806;BME280;21925;44.608;11.580;2023-02-16T05:31:15;102920.44;;;3.84;91.28
35806;BME280;21925;44.608;11.580;2023-02-16T05:33:40;102883.66;;;3.92;88.18
35806;BME280;21925;44.608;11.580;2023-02-16T05:36:06;102926.34;;;3.81;90.09
35806;BME280;21925;44.608;11.580;2023-02-16T05:38:31;102895.63;;;3.75;92.18
35806;BME280;21925;44.608;11.580;2023-02-16T05:41:00;102911.44;;;3.99;91.55
35806;BME280;21925;44.608;11.580;2023-02-16T05:43:26;102912.13;;;4.33;89.25
35806;BME280;21925;44.608;11.580;2023-02-16T05:45:51;102920.38;;;4.21;89.68
35806;BME280;21925;44.608;11.580;2023-02-16T05:48:17;102895.28;;;4.31;83.55
35806;BME280;21925;44.608;11.580;2023-02-16T05:50:43;102934.75;;;4.65;78.83
35806;BME280;21925;44.608;11.580;2023-02-16T05:53:08;102930.75;;;4.67;79.31
35806;BME280;21925;44.608;11.580;2023-02-16T05:55:34;102936.22;;;4.72;75.75
35806;BME280;21925;44.608;11.580;2023-02-16T05:57:59;102913.81;;;4.60;76.17
35806;BME280;21925;44.608;11.580;2023-02-16T06:00:25;102940.94;;;4.81;74.34
35806;BME280;21925;44.608;11.580;2023-02-16T06:02:50;102939.53;;;4.79;72.87
35806;BME280;21925;44.608;11.580;2023-02-16T06:05:16;102938.47;;;4.80;71.91
35806;BME280;21925;44.608;11.580;2023-02-16T06:07:42;102921.50;;;4.68;71.65
35806;BME280;21925;44.608;11.580;2023-02-16T06:10:08;102930.75;;;4.67;71.60
35806;BME280;21925;44.608;11.580;2023-02-16T06:12:34;102930.75;;;4.67;71.09
35806;BME280;21925;44.608;11.580;2023-02-16T06:15:00;102947.03;;;4.67;71.04
35806;BME280;21925;44.608;11.580;2023-02-16T06:17:26;102933.94;;;4.64;71.04
35806;BME280;21925;44.608;11.580;2023-02-16T06:19:53;102940.78;;;4.67;70.63
35806;BME280;21925;44.608;11.580;2023-02-16T06:22:19;102923.84;;;4.60;70.41
35806;BME280;21925;44.608;11.580;2023-02-16T06:24:44;102934.44;;;4.61;70.11
35806;BME280;21925;44.608;11.580;2023-02-16T06:27:10;102951.00;;;4.81;71.64
35806;BME280;21925;44.608;11.580;2023-02-16T06:29:35;102968.06;;;4.55;80.87
35806;BME280;21925;44.608;11.580;2023-02-16T06:32:01;102958.44;;;4.69;76.03
35806;BME280;21925;44.608;11.580;2023-02-16T06:34:27;102919.75;;;4.57;72.73
35806;BME280;21925;44.608;11.580;2023-02-16T06:36:52;102873.41;;;4.42;72.38
35806;BME280;21925;44.608;11.580;2023-02-16T06:39:18;102965.19;;;4.88;76.35
35806;BME280;21925;44.608;11.580;2023-02-16T06:41:44;102968.88;;;4.77;83.71
35806;BME280;21925;44.608;11.580;2023-02-16T06:44:12;102949.38;;;4.37;83.26
35806;BME280;21925;44.608;11.580;2023-02-16T06:46:39;102965.78;;;4.69;78.42
35806;BME280;21925;44.608;11.580;2023-02-16T06:49:05;102941.50;;;4.57;76.17
35806;BME280;21925;44.608;11.580;2023-02-16T06:51:33;102961.41;;;4.89;73.73
35806;BME280;21925;44.608;11.580;2023-02-16T06:53:59;102976.78;;;5.05;72.16
35806;BME280;21925;44.608;11.580;2023-02-16T06:56:25;102977.06;;;5.03;71.51
35806;BME280;21925;44.608;11.580;2023-02-16T06:58:50;102976.78;;;5.05;71.10
35806;BME280;21925;44.608;11.580;2023-02-16T07:01:17;102976.78;;;5.05;71.09
35806;BME280;21925;44.608;11.580;2023-02-16T07:03:56;102981.09;;;5.01;73.39
35806;BME280;21925;44.608;11.580;2023-02-16T07:06:25;102977.66;;;5.10;71.69
35806;BME280;21925;44.608;11.580;2023-02-16T07:08:52;102956.03;;;5.20;71.60
35806;BME280;21925;44.608;11.580;2023-02-16T07:11:18;102957.97;;;5.25;69.95
35806;BME280;21925;44.608;11.580;2023-02-16T07:13:45;102983.94;;;5.42;70.98
35806;BME280;21925;44.608;11.580;2023-02-16T07:16:14;102961.16;;;5.48;71.40
35806;BME280;21925;44.608;11.580;2023-02-16T07:18:40;102983.38;;;5.71;70.30
35806;BME280;21925;44.608;11.580;2023-02-16T07:21:06;102990.03;;;5.80;74.23
35806;BME280;21925;44.608;11.580;2023-02-16T07:23:32;102967.97;;;5.82;78.68
35806;BME280;21925;44.608;11.580;2023-02-16T07:25:58;102968.91;;;6.02;81.46
35806;BME280;21925;44.608;11.580;2023-02-16T07:28:24;102990.41;;;5.67;85.35
35806;BME280;21925;44.608;11.580;2023-02-16T07:30:49;102991.91;;;5.49;88.78
35806;BME280;21925;44.608;11.580;2023-02-16T07:33:16;103002.69;;;5.39;91.68
35806;BME280;21925;44.608;11.580;2023-02-16T07:35:42;103004.28;;;5.35;96.64
35806;BME280;21925;44.608;11.580;2023-02-16T07:38:08;102995.72;;;5.48;97.08
35806;BME280;21925;44.608;11.580;2023-02-16T07:40:34;102996.63;;;5.63;98.55
35806;BME280;21925;44.608;11.580;2023-02-16T07:43:01;103007.44;;;5.79;99.19
35806;BME280;21925;44.608;11.580;2023-02-16T07:45:27;103001.19;;;5.84;100.00
35806;BME280;21925;44.608;11.580;2023-02-16T07:47:53;102992.75;;;5.80;99.30
35806;BME280;21925;44.608;11.580;2023-02-16T07:50:18;102993.78;;;6.16;99.05
35806;BME280;21925;44.608;11.580;2023-02-16T07:52:44;103002.84;;;6.31;98.73
35806;BME280;21925;44.608;11.580;2023-02-16T07:55:10;103003.47;;;6.48;99.34
35806;BME280;21925;44.608;11.580;2023-02-16T07:57:38;102987.75;;;6.65;98.51
35806;BME280;21925;44.608;11.580;2023-02-16T08:00:05;103001.50;;;7.05;96.34
35806;BME280;21925;44.608;11.580;2023-02-16T08:02:36;103013.84;;;7.32;94.83
35806;BME280;21925;44.608;11.580;2023-02-16T08:05:02;103013.59;;;7.53;92.65
35806;BME280;21925;44.608;11.580;2023-02-16T08:07:28;103003.78;;;7.72;91.40
35806;BME280;21925;44.608;11.580;2023-02-16T08:09:53;103010.59;;;7.60;88.48
35806;BME280;21925;44.608;11.580;2023-02-16T08:12:19;103012.22;;;8.00;88.35
35806;BME280;21925;44.608;11.580;2023-02-16T08:14:45;103012.22;;;8.00;88.23
35806;BME280;21925;44.608;11.580;2023-02-16T08:17:13;103014.97;;;8.15;88.69
35806;BME280;21925;44.608;11.580;2023-02-16T08:19:38;102994.44;;;8.28;88.05
35806;BME280;21925;44.608;11.580;2023-02-16T08:22:06;103009.41;;;8.50;87.53
35806;BME280;21925;44.608;11.580;2023-02-16T08:24:32;103015.31;;;8.72;87.45
35806;BME280;21925;44.608;11.580;2023-02-16T08:27:01;103025.44;;;8.76;86.08
35806;BME280;21925;44.608;11.580;2023-02-16T08:29:28;103032.72;;;8.96;84.86
35806;BME280;21925;44.608;11.580;2023-02-16T08:31:55;103003.56;;;9.20;84.48
35806;BME280;21925;44.608;11.580;2023-02-16T08:34:23;103023.88;;;9.14;84.15
35806;BME280;21925;44.608;11.580;2023-02-16T08:36:54;102982.97;;;8.89;83.10
35806;BME280;21925;44.608;11.580;2023-02-16T08:39:23;102987.75;;;9.12;82.42
35806;BME280;21925;44.608;11.580;2023-02-16T08:41:51;103031.25;;;9.56;82.28
35806;BME280;21925;44.608;11.580;2023-02-16T08:44:20;103016.59;;;9.76;80.35
35806;BME280;21925;44.608;11.580;2023-02-16T08:46:47;102942.19;;;9.31;80.24
35806;BME280;21925;44.608;11.580;2023-02-16T08:49:16;103004.78;;;9.75;78.99
35806;BME280;21925;44.608;11.580;2023-02-16T08:51:46;103046.72;;;10.09;78.21
35806;BME280;21925;44.608;11.580;2023-02-16T08:54:16;103052.50;;;10.08;78.48
35806;BME280;21925;44.608;11.580;2023-02-16T08:56:42;103011.47;;;9.98;77.85
35806;BME280;21925;44.608;11.580;2023-02-16T08:59:15;103039.44;;;10.23;76.74
35806;BME280;21925;44.608;11.580;2023-02-16T09:01:41;103032.91;;;10.47;76.04
35806;BME280;21925;44.608;11.580;2023-02-16T09:04:07;103041.34;;;10.51;76.17
35806;BME280;21925;44.608;11.580;2023-02-16T09:06:36;103056.84;;;11.07;76.27
35806;BME280;21925;44.608;11.580;2023-02-16T09:09:03;103060.44;;;11.26;76.35
35806;BME280;21925;44.608;11.580;2023-02-16T09:11:29;103067.69;;;11.17;75.14
35806;BME280;21925;44.608;11.580;2023-02-16T09:13:55;103058.03;;;11.01;74.81
35806;BME280;21925;44.608;11.580;2023-02-16T09:16:22;103060.97;;;11.46;74.47
35806;BME280;21925;44.608;11.580;2023-02-16T09:18:50;103069.06;;;11.38;73.95
35806;BME280;21925;44.608;11.580;2023-02-16T09:21:19;103051.78;;;11.56;73.28
35806;BME280;21925;44.608;11.580;2023-02-16T09:23:46;103070.13;;;11.79;72.93
35806;BME280;21925;44.608;11.580;2023-02-16T09:26:13;103068.94;;;11.66;72.41
35806;BME280;21925;44.608;11.580;2023-02-16T09:28:41;103042.19;;;11.35;73.83
35806;BME280;21925;44.608;11.580;2023-02-16T09:31:12;103067.13;;;11.93;73.25
35806;BME280;21925;44.608;11.580;2023-02-16T09:33:39;103073.34;;;11.99;72.82
35806;BME280;21925;44.608;11.580;2023-02-16T09:36:10;103061.09;;;11.92;72.45
35806;BME280;21925;44.608;11.580;2023-02-16T09:38:37;103077.25;;;12.70;71.37
35806;BME280;21925;44.608;11.580;2023-02-16T09:41:29;103073.25;;;12.36;69.93
35806;BME280;21925;44.608;11.580;2023-02-16T09:47:05;103073.47;;;12.53;71.83
35806;BME280;21925;44.608;11.580;2023-02-16T09:49:37;103089.28;;;12.74;71.33
35806;BME280;21925;44.608;11.580;2023-02-16T09:54:57;103055.41;;;12.60;71.01
35806;BME280;21925;44.608;11.580;2023-02-16T09:57:48;103078.28;;;13.01;69.93
35806;BME280;21925;44.608;11.580;2023-02-16T10:00:43;103060.94;;;12.87;69.84
35806;BME280;21925;44.608;11.580;2023-02-16T10:03:49;103073.59;;;13.28;69.99
35806;BME280;21925;44.608;11.580;2023-02-16T10:06:26;103090.75;;;13.12;68.88
35806;BME280;21925;44.608;11.580;2023-02-16T10:09:02;103082.78;;;13.24;68.92
35806;BME280;21925;44.608;11.580;2023-02-16T10:14:07;103075.00;;;13.96;65.76
35806;BME280;21925;44.608;11.580;2023-02-16T10:16:43;103079.69;;;13.96;66.60
35806;BME280;21925;44.608;11.580;2023-02-16T10:19:25;103074.09;;;13.87;65.74
35806;BME280;21925;44.608;11.580;2023-02-16T10:21:57;103080.00;;;13.94;65.83
35806;BME280;21925;44.608;11.580;2023-02-16T10:24:26;103075.88;;;14.27;65.06
35806;BME280;21925;44.608;11.580;2023-02-16T10:27:09;103062.25;;;14.09;65.24
35806;BME280;21925;44.608;11.580;2023-02-16T10:29:36;103067.59;;;14.27;65.17
35806;BME280;21925;44.608;11.580;2023-02-16T10:32:27;103065.09;;;14.78;63.24
35806;BME280;21925;44.608;11.580;2023-02-16T10:35:13;103062.22;;;15.00;63.66
35806;BME280;21925;44.608;11.580;2023-02-16T10:37:50;103068.41;;;14.66;62.32
35806;BME280;21925;44.608;11.580;2023-02-16T10:40:45;103059.34;;;15.21;63.84
35806;BME280;21925;44.608;11.580;2023-02-16T10:43:18;103052.69;;;16.15;61.74
35806;BME280;21925;44.608;11.580;2023-02-16T10:45:52;103041.19;;;15.71;60.92
35806;BME280;21925;44.608;11.580;2023-02-16T10:48:19;103062.31;;;15.84;62.20
35806;BME280;21925;44.608;11.580;2023-02-16T10:53:21;103059.56;;;15.42;61.88
35806;BME280;21925;44.608;11.580;2023-02-16T10:55:48;103027.66;;;15.78;61.78
35806;BME280;21925;44.608;11.580;2023-02-16T10:58:18;103052.88;;;15.85;60.08
35806;BME280;21925;44.608;11.580;2023-02-16T11:00:53;103058.00;;;16.46;60.90
35806;BME280;21925;44.608;11.580;2023-02-16T11:03:28;103058.84;;;16.38;59.24
35806;BME280;21925;44.608;11.580;2023-02-16T11:05:56;103055.41;;;16.41;59.36
35806;BME280;21925;44.608;11.580;2023-02-16T11:08:51;103040.81;;;16.15;60.66
35806;BME280;21925;44.608;11.580;2023-02-16T11:11:23;103039.00;;;16.19;60.57
35806;BME280;21925;44.608;11.580;2023-02-16T11:13:57;103035.44;;;16.64;59.40
35806;BME280;21925;44.608;11.580;2023-02-16T11:16:24;103026.88;;;17.06;60.45
35806;BME280;21925;44.608;11.580;2023-02-16T11:19:08;103030.81;;;16.77;58.18
35806;BME280;21925;44.608;11.580;2023-02-16T11:21:50;103034.53;;;16.52;58.73
35806;BME280;21925;44.608;11.580;2023-02-16T11:24:35;103027.66;;;17.15;58.81
35806;BME280;21925;44.608;11.580;2023-02-16T11:27:05;103026.72;;;16.82;59.21
35806;BME280;21925;44.608;11.580;2023-02-16T11:29:32;103023.91;;;17.40;58.14
35806;BME280;21925;44.608;11.580;2023-02-16T11:31:58;103033.59;;;17.87;57.43
35806;BME280;21925;44.608;11.580;2023-02-16T11:34:34;103030.91;;;17.99;58.42
35806;BME280;21925;44.608;11.580;2023-02-16T11:37:11;103021.03;;;18.22;56.90
35806;BME280;21925;44.608;11.580;2023-02-16T11:39:39;102971.50;;;18.36;58.35
35806;BME280;21925;44.608;11.580;2023-02-16T11:42:40;103014.59;;;18.53;55.03
35806;BME280;21925;44.608;11.580;2023-02-16T11:45:38;103011.38;;;18.87;59.00
35806;BME280;21925;44.608;11.580;2023-02-16T11:48:10;103010.78;;;19.18;56.67
35806;BME280;21925;44.608;11.580;2023-02-16T11:50:40;102998.59;;;18.27;57.77
35806;BME280;21925;44.608;11.580;2023-02-16T11:53:27;102984.28;;;18.04;57.64
35806;BME280;21925;44.608;11.580;2023-02-16T11:56:24;102999.88;;;18.29;56.78
35806;BME280;21925;44.608;11.580;2023-02-16T12:07:08;102990.25;;;18.27;56.04
35806;BME280;21925;44.608;11.580;2023-02-16T12:31:46;102949.59;;;20.15;57.32
35806;BME280;21925;44.608;11.580;2023-02-16T12:40:27;102943.03;;;20.07;53.89
35806;BME280;21925;44.608;11.580;2023-02-16T12:43:33;102941.25;;;19.45;55.11
35806;BME280;21925;44.608;11.580;2023-02-16T12:46:49;102940.03;;;20.16;59.13
35806;BME280;21925;44.608;11.580;2023-02-16T12:48:54;102922.69;;;20.53;58.48
35806;BME280;21925;44.608;11.580;2023-02-16T12:51:26;102933.22;;;19.71;56.03
35806;BME280;21925;44.608;11.580;2023-02-16T12:54:03;102921.75;;;20.15;57.01
35806;BME280;21925;44.608;11.580;2023-02-16T12:56:42;102917.13;;;20.38;53.90
35806;BME280;21925;44.608;11.580;2023-02-16T12:59:18;102891.69;;;20.39;58.09
35806;BME280;21925;44.608;11.580;2023-02-16T13:01:46;102903.66;;;21.08;58.15
35806;BME280;21925;44.608;11.580;2023-02-16T13:04:36;102902.09;;;20.92;53.70
35806;BME280;21925;44.608;11.580;2023-02-16T13:07:14;102899.16;;;21.42;57.55
35806;BME280;21925;44.608;11.580;2023-02-16T13:10:13;102898.31;;;21.38;56.75
35806;BME280;21925;44.608;11.580;2023-02-16T13:13:23;102900.72;;;20.67;55.18
35806;BME280;21925;44.608;11.580;2023-02-16T13:15:35;102898.88;;;21.28;56.27
35806;BME280;21925;44.608;11.580;2023-02-16T13:18:25;102901.34;;;20.76;52.67
35806;BME280;21925;44.608;11.580;2023-02-16T13:20:59;102894.97;;;20.60;53.13
35806;BME280;21925;44.608;11.580;2023-02-16T13:39:23;102873.09;;;20.96;55.91
35806;BME280;21925;44.608;11.580;2023-02-16T13:44:44;102872.16;;;21.46;56.34
35806;BME280;21925;44.608;11.580;2023-02-16T13:47:15;102860.78;;;21.35;55.36
35806;BME280;21925;44.608;11.580;2023-02-16T13:49:42;102866.59;;;20.39;53.27
35806;BME280;21925;44.608;11.580;2023-02-16T13:52:28;102873.75;;;20.06;53.46
35806;BME280;21925;44.608;11.580;2023-02-16T13:54:56;102865.75;;;20.20;54.63
35806;BME280;21925;44.608;11.580;2023-02-16T14:02:55;102868.69;;;20.42;55.84
35806;BME280;21925;44.608;11.580;2023-02-16T14:05:24;102863.31;;;20.18;54.69
35806;BME280;21925;44.608;11.580;2023-02-16T14:08:27;102871.03;;;20.25;55.89
35806;BME280;21925;44.608;11.580;2023-02-16T14:10:54;102874.66;;;19.95;56.51
35806;BME280;21925;44.608;11.580;2023-02-16T14:16:09;102870.69;;;19.96;56.29
35806;BME280;21925;44.608;11.580;2023-02-16T14:23:43;102861.50;;;19.64;56.52
35806;BME280;21925;44.608;11.580;2023-02-16T14:26:10;102839.34;;;19.99;57.32
35806;BME280;21925;44.608;11.580;2023-02-16T14:31:19;102867.66;;;19.58;58.62
35806;BME280;21925;44.608;11.580;2023-02-16T14:36:21;102854.81;;;18.71;60.60
35806;BME280;21925;44.608;11.580;2023-02-16T14:38:50;102846.00;;;18.69;60.11
35806;BME280;21925;44.608;11.580;2023-02-16T14:53:07;102861.56;;;18.46;61.69
35806;BME280;21925;44.608;11.580;2023-02-16T15:01:13;102855.47;;;18.29;59.89
35806;BME280;21925;44.608;11.580;2023-02-16T15:03:40;102823.34;;;18.43;60.16
35806;BME280;21925;44.608;11.580;2023-02-16T15:06:06;102845.72;;;18.35;60.14
35806;BME280;21925;44.608;11.580;2023-02-16T15:08:36;102843.88;;;18.78;60.81
35806;BME280;21925;44.608;11.580;2023-02-16T15:13:42;102859.00;;;18.18;60.58
35806;BME280;21925;44.608;11.580;2023-02-16T15:16:09;102857.63;;;18.36;61.06
35806;BME280;21925;44.608;11.580;2023-02-16T15:18:43;102857.84;;;18.54;59.38
35806;BME280;21925;44.608;11.580;2023-02-16T15:21:20;102856.81;;;18.23;59.30
35806;BME280;21925;44.608;11.580;2023-02-16T15:23:52;102852.63;;;18.17;60.11